首页
METAR-TAF:

METAR-TAF

机场 :

圣米格尔-德土库曼, 阿根廷

纬度: 26-51S, 经度: 065-06W, 海拔: 440米

当前天气观测

该预报发布于31分钟前的16:00 UTC
静风
温度 33°C
湿度 53%
气压 1009 hPa
能见度10公里或以上
少量云层高于4000英尺, 塔状积云.

METAR: SANT 201600Z 00000KT 9999 FEW040TCU 33/22 Q1009

时间: 13:31 (16:31 UTC)

预报

该预报发布于5小时和31分钟前的11:00 UTC
预报有效从20日的 12点(UTC)到 21日的 12点(UTC)
风速5节,风向东北
能见度10公里或以上
1500米以下无云,无积雨云
成为
从 20日的 14点(UTC)到 20日的 16点(UTC)
风速15节,风向东北
能见度10公里或以上
散云层高于3500英尺
几率 40% :
短暂存在
从 20日的 22点(UTC)到 21日的 02点(UTC)
少量云层高于4000英尺, 积雨云.
成为
从 21日的 03点(UTC)到 21日的 05点(UTC)
风速10节,风向
能见度10公里或以上
1500米以下无云,无积雨云

TAF: SANT 201100Z 2012/2112 05005KT CAVOK TX37/2018Z TN23/2110Z BECMG 2014/2016 05015KT 9999 SCT035 PROB40 TEMPO 2022/2102 FEW040CB BECMG 2103/2105 36010KT CAVOK

超过4000个机场的气象观测和天气预报(METAR&TAF报告)。

可查询的气象台以黄色和红色小点在地图上表示。

将鼠标移到小点上方,可查看气象台名称。

然后点击查看天气观测和预报。

如需切换地图:点击带黑十字的绿色按钮放大地图;点击带横线的绿色按钮缩小地图;或者点击绿色箭头查看邻近地区的地图。


METAR-TAF: